sensor_id;sensor_type;location;lat;lon;timestamp;pressure;altitude;pressure_sealevel;temperature;humidity
77333;BME280;66408;51.326;12.070;2023-04-03T00:00:32;102021.38;;;2.88;68.26
77333;BME280;66408;51.326;12.070;2023-04-03T00:02:59;102011.47;;;2.82;68.99
77333;BME280;66408;51.326;12.070;2023-04-03T00:05:25;102018.50;;;2.83;69.02
77333;BME280;66408;51.326;12.070;2023-04-03T00:07:52;102023.03;;;2.82;68.58
77333;BME280;66408;51.326;12.070;2023-04-03T00:10:19;102016.66;;;2.77;68.03
77333;BME280;66408;51.326;12.070;2023-04-03T00:12:45;102021.81;;;2.78;68.34
77333;BME280;66408;51.326;12.070;2023-04-03T00:15:12;102023.69;;;2.71;68.10
77333;BME280;66408;51.326;12.070;2023-04-03T00:17:38;102018.53;;;2.63;68.84
77333;BME280;66408;51.326;12.070;2023-04-03T00:20:06;102018.50;;;2.76;68.96
77333;BME280;66408;51.326;12.070;2023-04-03T00:22:32;102009.22;;;2.66;68.52
77333;BME280;66408;51.326;12.070;2023-04-03T00:24:59;102021.22;;;2.63;69.11
77333;BME280;66408;51.326;12.070;2023-04-03T00:27:26;102028.25;;;2.58;69.74
77333;BME280;66408;51.326;12.070;2023-04-03T00:29:52;102022.25;;;2.69;69.21
77333;BME280;66408;51.326;12.070;2023-04-03T00:32:19;102020.22;;;2.58;68.94
77333;BME280;66408;51.326;12.070;2023-04-03T00:34:45;102017.09;;;2.54;68.86
77333;BME280;66408;51.326;12.070;2023-04-03T00:37:12;102027.84;;;2.41;68.56
77333;BME280;66408;51.326;12.070;2023-04-03T00:39:38;102022.25;;;2.49;68.75
77333;BME280;66408;51.326;12.070;2023-04-03T00:42:05;102028.25;;;2.38;69.35
77333;BME280;66408;51.326;12.070;2023-04-03T00:47:03;102018.75;;;2.35;69.47
77333;BME280;66408;51.326;12.070;2023-04-03T00:49:32;102026.44;;;2.32;69.09
77333;BME280;66408;51.326;12.070;2023-04-03T00:51:58;102019.41;;;2.31;68.88
77333;BME280;66408;51.326;12.070;2023-04-03T00:54:26;102019.19;;;2.32;69.13
77333;BME280;66408;51.326;12.070;2023-04-03T00:56:54;102017.94;;;2.28;69.14
77333;BME280;66408;51.326;12.070;2023-04-03T00:59:27;102013.84;;;2.32;68.80
77333;BME280;66408;51.326;12.070;2023-04-03T01:01:56;102022.72;;;2.20;69.02
77333;BME280;66408;51.326;12.070;2023-04-03T01:04:36;102024.16;;;2.15;69.38
77333;BME280;66408;51.326;12.070;2023-04-03T01:07:07;102020.84;;;2.20;68.96
77333;BME280;66408;51.326;12.070;2023-04-03T01:09:35;102024.38;;;2.07;69.38
77333;BME280;66408;51.326;12.070;2023-04-03T01:12:33;102023.09;;;2.03;68.75
77333;BME280;66408;51.326;12.070;2023-04-03T01:15:05;102026.41;;;2.05;68.67
77333;BME280;66408;51.326;12.070;2023-04-03T01:17:39;102030.13;;;2.11;67.99
77333;BME280;66408;51.326;12.070;2023-04-03T01:28:07;102031.56;;;1.94;68.20
77333;BME280;66408;51.326;12.070;2023-04-03T01:30:35;102040.00;;;1.91;68.58
77333;BME280;66408;51.326;12.070;2023-04-03T01:33:03;102039.38;;;1.89;68.89
77333;BME280;66408;51.326;12.070;2023-04-03T01:35:29;102043.94;;;1.95;68.55
77333;BME280;66408;51.326;12.070;2023-04-03T01:37:56;102042.09;;;1.95;69.04
77333;BME280;66408;51.326;12.070;2023-04-03T01:40:23;102044.94;;;1.87;69.13
77333;BME280;66408;51.326;12.070;2023-04-03T01:42:49;102047.03;;;1.85;69.51
77333;BME280;66408;51.326;12.070;2023-04-03T01:45:16;102048.06;;;1.91;69.30
77333;BME280;66408;51.326;12.070;2023-04-03T01:47:42;102051.78;;;1.83;69.45
77333;BME280;66408;51.326;12.070;2023-04-03T01:50:09;102056.06;;;1.77;69.91
77333;BME280;66408;51.326;12.070;2023-04-03T01:52:36;102056.28;;;1.69;69.90
77333;BME280;66408;51.326;12.070;2023-04-03T01:55:03;102058.31;;;1.67;69.97
77333;BME280;66408;51.326;12.070;2023-04-03T01:57:29;102065.31;;;1.62;70.15
77333;BME280;66408;51.326;12.070;2023-04-03T01:59:56;102062.63;;;1.62;69.87
77333;BME280;66408;51.326;12.070;2023-04-03T02:02:23;102068.00;;;1.62;69.49
77333;BME280;66408;51.326;12.070;2023-04-03T02:04:49;102069.22;;;1.53;69.60
77333;BME280;66408;51.326;12.070;2023-04-03T02:07:16;102067.78;;;1.57;69.17
77333;BME280;66408;51.326;12.070;2023-04-03T02:09:42;102073.72;;;1.46;69.85
77333;BME280;66408;51.326;12.070;2023-04-03T02:12:09;102075.72;;;1.30;70.14
77333;BME280;66408;51.326;12.070;2023-04-03T02:14:35;102072.44;;;1.35;70.27
77333;BME280;66408;51.326;12.070;2023-04-03T02:17:02;102079.88;;;1.39;70.14
77333;BME280;66408;51.326;12.070;2023-04-03T02:19:31;102079.66;;;1.34;70.44
77333;BME280;66408;51.326;12.070;2023-04-03T02:21:58;102081.34;;;1.49;70.09
77333;BME280;66408;51.326;12.070;2023-04-03T02:24:25;102072.66;;;1.40;70.26
77333;BME280;66408;51.326;12.070;2023-04-03T02:26:51;102085.44;;;1.38;70.19
77333;BME280;66408;51.326;12.070;2023-04-03T02:29:18;102086.44;;;1.37;70.39
77333;BME280;66408;51.326;12.070;2023-04-03T02:31:44;102088.97;;;1.45;70.48
77333;BME280;66408;51.326;12.070;2023-04-03T02:34:11;102087.91;;;1.39;70.31
77333;BME280;66408;51.326;12.070;2023-04-03T02:36:38;102097.78;;;1.32;70.59
77333;BME280;66408;51.326;12.070;2023-04-03T02:39:04;102090.38;;;1.34;70.62
77333;BME280;66408;51.326;12.070;2023-04-03T02:41:31;102107.44;;;1.27;70.52
77333;BME280;66408;51.326;12.070;2023-04-03T02:44:02;102102.28;;;1.25;70.72
77333;BME280;66408;51.326;12.070;2023-04-03T02:46:29;102110.91;;;1.21;70.64
77333;BME280;66408;51.326;12.070;2023-04-03T02:48:56;102097.72;;;1.19;70.63
77333;BME280;66408;51.326;12.070;2023-04-03T02:51:23;102102.47;;;1.24;70.21
77333;BME280;66408;51.326;12.070;2023-04-03T02:53:49;102110.03;;;1.14;70.83
77333;BME280;66408;51.326;12.070;2023-04-03T02:56:17;102114.38;;;1.15;71.10
77333;BME280;66408;51.326;12.070;2023-04-03T02:58:45;102115.94;;;1.37;70.20
77333;BME280;66408;51.326;12.070;2023-04-03T03:01:13;102117.25;;;1.54;69.83
77333;BME280;66408;51.326;12.070;2023-04-03T03:03:39;102112.84;;;1.33;70.00
77333;BME280;66408;51.326;12.070;2023-04-03T03:06:13;102110.03;;;1.48;69.45
77333;BME280;66408;51.326;12.070;2023-04-03T03:08:41;102113.75;;;1.13;70.22
77333;BME280;66408;51.326;12.070;2023-04-03T03:11:09;102119.50;;;1.10;70.47
77333;BME280;66408;51.326;12.070;2023-04-03T03:13:35;102112.97;;;1.19;70.05
77333;BME280;66408;51.326;12.070;2023-04-03T03:16:02;102117.38;;;1.33;69.71
77333;BME280;66408;51.326;12.070;2023-04-03T03:18:29;102119.03;;;1.34;70.09
77333;BME280;66408;51.326;12.070;2023-04-03T03:20:58;102120.06;;;1.39;69.83
77333;BME280;66408;51.326;12.070;2023-04-03T03:23:26;102123.03;;;1.10;70.56
77333;BME280;66408;51.326;12.070;2023-04-03T03:25:58;102126.09;;;1.14;70.72
77333;BME280;66408;51.326;12.070;2023-04-03T03:28:25;102127.00;;;1.27;70.46
77333;BME280;66408;51.326;12.070;2023-04-03T03:30:52;102126.56;;;1.24;70.17
77333;BME280;66408;51.326;12.070;2023-04-03T03:33:19;102126.56;;;1.17;70.87
77333;BME280;66408;51.326;12.070;2023-04-03T03:35:46;102127.41;;;1.24;70.21
77333;BME280;66408;51.326;12.070;2023-04-03T03:38:13;102132.41;;;0.99;70.69
77333;BME280;66408;51.326;12.070;2023-04-03T03:40:39;102129.25;;;0.89;71.79
77333;BME280;66408;51.326;12.070;2023-04-03T03:43:06;102130.81;;;1.05;70.63
77333;BME280;66408;51.326;12.070;2023-04-03T03:45:32;102126.28;;;0.78;71.41
77333;BME280;66408;51.326;12.070;2023-04-03T03:47:59;102136.69;;;0.66;71.88
77333;BME280;66408;51.326;12.070;2023-04-03T03:50:25;102135.38;;;0.55;72.10
77333;BME280;66408;51.326;12.070;2023-04-03T03:52:52;102135.03;;;0.65;72.19
77333;BME280;66408;51.326;12.070;2023-04-03T03:55:18;102130.97;;;0.69;72.19
77333;BME280;66408;51.326;12.070;2023-04-03T03:57:45;102133.38;;;0.64;71.90
77333;BME280;66408;51.326;12.070;2023-04-03T04:00:12;102139.25;;;0.74;71.99
77333;BME280;66408;51.326;12.070;2023-04-03T04:02:38;102146.44;;;0.74;72.11
77333;BME280;66408;51.326;12.070;2023-04-03T04:05:06;102138.38;;;0.46;72.27
77333;BME280;66408;51.326;12.070;2023-04-03T04:07:32;102148.56;;;0.57;72.70
77333;BME280;66408;51.326;12.070;2023-04-03T04:09:59;102149.09;;;0.46;72.50
77333;BME280;66408;51.326;12.070;2023-04-03T04:12:25;102154.75;;;0.57;72.00
77333;BME280;66408;51.326;12.070;2023-04-03T04:14:52;102141.91;;;0.46;72.81
77333;BME280;66408;51.326;12.070;2023-04-03T04:17:19;102146.78;;;0.43;72.80
77333;BME280;66408;51.326;12.070;2023-04-03T04:19:45;102152.22;;;0.49;72.69
77333;BME280;66408;51.326;12.070;2023-04-03T04:22:12;102155.13;;;0.54;72.32
77333;BME280;66408;51.326;12.070;2023-04-03T04:24:38;102152.06;;;0.57;72.01
77333;BME280;66408;51.326;12.070;2023-04-03T04:27:05;102154.25;;;0.47;71.92
77333;BME280;66408;51.326;12.070;2023-04-03T04:29:31;102162.72;;;0.29;72.86
77333;BME280;66408;51.326;12.070;2023-04-03T04:32:03;102155.19;;;0.40;72.50
77333;BME280;66408;51.326;12.070;2023-04-03T04:34:29;102159.72;;;0.39;72.58
77333;BME280;66408;51.326;12.070;2023-04-03T04:36:56;102163.91;;;0.27;72.80
77333;BME280;66408;51.326;12.070;2023-04-03T04:39:23;102168.91;;;0.30;72.72
77333;BME280;66408;51.326;12.070;2023-04-03T04:41:49;102160.72;;;0.38;72.23
77333;BME280;66408;51.326;12.070;2023-04-03T04:44:16;102169.09;;;0.28;72.44
77333;BME280;66408;51.326;12.070;2023-04-03T04:46:43;102169.84;;;0.44;72.59
77333;BME280;66408;51.326;12.070;2023-04-03T04:49:09;102170.53;;;0.52;72.29
77333;BME280;66408;51.326;12.070;2023-04-03T04:51:36;102168.50;;;0.54;72.05
77333;BME280;66408;51.326;12.070;2023-04-03T04:54:16;102171.75;;;0.50;71.81
77333;BME280;66408;51.326;12.070;2023-04-03T04:56:43;102178.94;;;0.28;72.60
77333;BME280;66408;51.326;12.070;2023-04-03T04:59:10;102181.94;;;0.40;72.48
77333;BME280;66408;51.326;12.070;2023-04-03T05:01:36;102174.31;;;0.58;71.90
77333;BME280;66408;51.326;12.070;2023-04-03T05:04:03;102180.69;;;0.57;71.97
77333;BME280;66408;51.326;12.070;2023-04-03T05:06:30;102186.97;;;0.28;72.19
77333;BME280;66408;51.326;12.070;2023-04-03T05:08:58;102191.13;;;0.30;72.55
77333;BME280;66408;51.326;12.070;2023-04-03T05:11:25;102185.44;;;0.40;72.55
77333;BME280;66408;51.326;12.070;2023-04-03T05:13:52;102200.28;;;0.21;72.93
77333;BME280;66408;51.326;12.070;2023-04-03T05:16:19;102202.94;;;0.36;73.01
77333;BME280;66408;51.326;12.070;2023-04-03T05:18:46;102200.03;;;0.16;73.10
77333;BME280;66408;51.326;12.070;2023-04-03T05:21:13;102195.28;;;0.33;72.93
77333;BME280;66408;51.326;12.070;2023-04-03T05:23:39;102204.34;;;0.17;73.26
77333;BME280;66408;51.326;12.070;2023-04-03T05:26:06;102196.41;;;0.24;73.38
77333;BME280;66408;51.326;12.070;2023-04-03T05:28:33;102199.47;;;0.21;73.19
77333;BME280;66408;51.326;12.070;2023-04-03T05:30:59;102190.84;;;0.25;72.71
77333;BME280;66408;51.326;12.070;2023-04-03T05:33:26;102199.84;;;0.18;73.10
77333;BME280;66408;51.326;12.070;2023-04-03T05:35:54;102198.13;;;0.31;72.68
77333;BME280;66408;51.326;12.070;2023-04-03T05:38:21;102201.44;;;0.33;72.62
77333;BME280;66408;51.326;12.070;2023-04-03T05:40:48;102206.44;;;0.37;72.53
77333;BME280;66408;51.326;12.070;2023-04-03T05:43:14;102206.63;;;0.56;71.70
77333;BME280;66408;51.326;12.070;2023-04-03T05:45:43;102204.31;;;0.53;71.85
77333;BME280;66408;51.326;12.070;2023-04-03T05:48:12;102217.69;;;0.53;71.38
77333;BME280;66408;51.326;12.070;2023-04-03T05:50:39;102221.53;;;0.44;71.56
77333;BME280;66408;51.326;12.070;2023-04-03T05:53:20;102221.66;;;0.57;71.55
77333;BME280;66408;51.326;12.070;2023-04-03T05:55:47;102224.34;;;0.57;71.47
77333;BME280;66408;51.326;12.070;2023-04-03T05:58:14;102228.16;;;0.69;71.20
77333;BME280;66408;51.326;12.070;2023-04-03T06:00:40;102228.28;;;0.83;70.30
77333;BME280;66408;51.326;12.070;2023-04-03T06:03:07;102231.06;;;0.75;70.74
77333;BME280;66408;51.326;12.070;2023-04-03T06:05:34;102229.03;;;0.77;70.23
77333;BME280;66408;51.326;12.070;2023-04-03T06:08:01;102240.06;;;0.88;70.61
77333;BME280;66408;51.326;12.070;2023-04-03T06:10:29;102228.22;;;0.97;70.42
77333;BME280;66408;51.326;12.070;2023-04-03T06:12:56;102236.72;;;1.07;69.97
77333;BME280;66408;51.326;12.070;2023-04-03T06:15:22;102241.38;;;1.20;69.49
77333;BME280;66408;51.326;12.070;2023-04-03T06:17:49;102234.19;;;1.27;69.20
77333;BME280;66408;51.326;12.070;2023-04-03T06:20:16;102233.44;;;1.40;68.89
77333;BME280;66408;51.326;12.070;2023-04-03T06:22:42;102236.97;;;1.40;68.72
77333;BME280;66408;51.326;12.070;2023-04-03T06:25:10;102233.72;;;1.45;68.40
77333;BME280;66408;51.326;12.070;2023-04-03T06:27:37;102233.81;;;1.65;68.36
77333;BME280;66408;51.326;12.070;2023-04-03T06:30:06;102236.81;;;1.83;68.33
77333;BME280;66408;51.326;12.070;2023-04-03T06:32:33;102237.84;;;1.82;67.66
77333;BME280;66408;51.326;12.070;2023-04-03T06:34:59;102241.75;;;1.79;67.57
77333;BME280;66408;51.326;12.070;2023-04-03T06:37:26;102242.44;;;1.95;67.28
77333;BME280;66408;51.326;12.070;2023-04-03T06:39:55;102246.97;;;1.94;66.79
77333;BME280;66408;51.326;12.070;2023-04-03T06:42:22;102243.06;;;1.97;66.33
77333;BME280;66408;51.326;12.070;2023-04-03T06:44:48;102245.19;;;2.14;66.09
77333;BME280;66408;51.326;12.070;2023-04-03T06:47:16;102245.63;;;2.25;65.87
77333;BME280;66408;51.326;12.070;2023-04-03T06:49:43;102246.91;;;2.35;65.78
77333;BME280;66408;51.326;12.070;2023-04-03T06:52:09;102249.84;;;2.47;64.71
77333;BME280;66408;51.326;12.070;2023-04-03T06:54:38;102256.69;;;2.63;64.40
77333;BME280;66408;51.326;12.070;2023-04-03T06:57:05;102253.00;;;2.70;64.54
77333;BME280;66408;51.326;12.070;2023-04-03T06:59:33;102251.78;;;3.06;63.74
77333;BME280;66408;51.326;12.070;2023-04-03T07:02:00;102256.53;;;3.17;63.38
77333;BME280;66408;51.326;12.070;2023-04-03T07:04:27;102262.28;;;3.47;61.89
77333;BME280;66408;51.326;12.070;2023-04-03T07:06:54;102261.84;;;3.76;61.42
77333;BME280;66408;51.326;12.070;2023-04-03T07:09:21;102260.19;;;3.82;60.46
77333;BME280;66408;51.326;12.070;2023-04-03T07:11:48;102267.75;;;4.05;58.59
77333;BME280;66408;51.326;12.070;2023-04-03T07:14:14;102266.97;;;4.80;55.63
77333;BME280;66408;51.326;12.070;2023-04-03T07:16:41;102261.28;;;5.63;54.20
77333;BME280;66408;51.326;12.070;2023-04-03T07:19:08;102267.41;;;6.73;51.37
77333;BME280;66408;51.326;12.070;2023-04-03T07:21:35;102267.66;;;7.60;48.93
77333;BME280;66408;51.326;12.070;2023-04-03T07:24:02;102264.63;;;8.59;45.83
77333;BME280;66408;51.326;12.070;2023-04-03T07:26:29;102273.91;;;7.48;46.41
77333;BME280;66408;51.326;12.070;2023-04-03T07:28:55;102275.06;;;7.76;46.95
77333;BME280;66408;51.326;12.070;2023-04-03T07:31:22;102272.34;;;7.99;45.80
77333;BME280;66408;51.326;12.070;2023-04-03T07:33:49;102281.41;;;8.73;45.18
77333;BME280;66408;51.326;12.070;2023-04-03T07:36:18;102277.28;;;7.67;45.50
77333;BME280;66408;51.326;12.070;2023-04-03T07:38:44;102280.81;;;7.79;46.51
77333;BME280;66408;51.326;12.070;2023-04-03T07:41:15;102284.81;;;7.18;47.33
77333;BME280;66408;51.326;12.070;2023-04-03T07:43:44;102289.69;;;6.57;49.32
77333;BME280;66408;51.326;12.070;2023-04-03T07:46:11;102284.47;;;7.27;48.39
77333;BME280;66408;51.326;12.070;2023-04-03T07:48:38;102285.72;;;8.06;46.66
77333;BME280;66408;51.326;12.070;2023-04-03T07:51:05;102277.56;;;7.77;45.43
77333;BME280;66408;51.326;12.070;2023-04-03T07:53:32;102286.16;;;9.11;45.22
77333;BME280;66408;51.326;12.070;2023-04-03T07:55:59;102281.44;;;9.73;42.44
77333;BME280;66408;51.326;12.070;2023-04-03T07:58:26;102285.84;;;9.24;42.42
77333;BME280;66408;51.326;12.070;2023-04-03T08:00:53;102280.59;;;7.57;45.05
77333;BME280;66408;51.326;12.070;2023-04-03T08:03:19;102280.78;;;7.09;47.92
77333;BME280;66408;51.326;12.070;2023-04-03T08:05:47;102289.44;;;6.10;49.23
77333;BME280;66408;51.326;12.070;2023-04-03T08:08:17;102287.88;;;5.34;50.27
77333;BME280;66408;51.326;12.070;2023-04-03T08:10:53;102289.59;;;5.29;51.74
77333;BME280;66408;51.326;12.070;2023-04-03T08:13:21;102292.88;;;4.81;52.29
77333;BME280;66408;51.326;12.070;2023-04-03T08:15:48;102283.25;;;4.92;53.70
77333;BME280;66408;51.326;12.070;2023-04-03T08:18:15;102289.19;;;5.00;52.61
77333;BME280;66408;51.326;12.070;2023-04-03T08:20:42;102295.84;;;4.98;52.59
77333;BME280;66408;51.326;12.070;2023-04-03T08:23:09;102289.75;;;5.34;51.38
77333;BME280;66408;51.326;12.070;2023-04-03T08:25:41;102289.97;;;5.57;51.69
77333;BME280;66408;51.326;12.070;2023-04-03T08:28:08;102294.72;;;5.12;50.71
77333;BME280;66408;51.326;12.070;2023-04-03T08:30:35;102296.06;;;4.96;50.97
77333;BME280;66408;51.326;12.070;2023-04-03T08:33:02;102294.50;;;4.82;51.85
77333;BME280;66408;51.326;12.070;2023-04-03T08:35:29;102301.59;;;4.77;52.52
77333;BME280;66408;51.326;12.070;2023-04-03T08:37:56;102291.25;;;4.74;51.96
77333;BME280;66408;51.326;12.070;2023-04-03T08:40:23;102300.94;;;4.43;51.36
77333;BME280;66408;51.326;12.070;2023-04-03T08:45:46;102285.94;;;4.92;52.21
77333;BME280;66408;51.326;12.070;2023-04-03T08:50:57;102287.00;;;5.84;50.98
77333;BME280;66408;51.326;12.070;2023-04-03T08:53:32;102277.59;;;6.11;48.97
77333;BME280;66408;51.326;12.070;2023-04-03T08:56:05;102282.56;;;6.44;48.74
77333;BME280;66408;51.326;12.070;2023-04-03T08:58:48;102295.56;;;6.54;48.60
77333;BME280;66408;51.326;12.070;2023-04-03T09:01:23;102289.56;;;6.33;45.90
77333;BME280;66408;51.326;12.070;2023-04-03T09:03:52;102282.50;;;6.32;47.89
77333;BME280;66408;51.326;12.070;2023-04-03T09:06:21;102286.97;;;6.87;47.49
77333;BME280;66408;51.326;12.070;2023-04-03T09:11:48;102276.44;;;8.13;44.94
77333;BME280;66408;51.326;12.070;2023-04-03T09:16:54;102297.13;;;7.03;44.53
77333;BME280;66408;51.326;12.070;2023-04-03T09:22:21;102293.56;;;5.94;46.82
77333;BME280;66408;51.326;12.070;2023-04-03T09:24:57;102304.00;;;5.91;47.29
77333;BME280;66408;51.326;12.070;2023-04-03T09:27:25;102299.59;;;5.71;48.45
77333;BME280;66408;51.326;12.070;2023-04-03T09:29:54;102308.59;;;5.65;47.73
77333;BME280;66408;51.326;12.070;2023-04-03T09:32:32;102298.13;;;5.94;48.40
77333;BME280;66408;51.326;12.070;2023-04-03T09:35:01;102295.00;;;5.97;47.44
77333;BME280;66408;51.326;12.070;2023-04-03T09:38:33;102300.88;;;5.44;48.81
77333;BME280;66408;51.326;12.070;2023-04-03T09:40:44;102287.03;;;6.20;47.41
77333;BME280;66408;51.326;12.070;2023-04-03T09:45:45;102288.56;;;6.64;45.01
77333;BME280;66408;51.326;12.070;2023-04-03T09:48:17;102289.22;;;6.60;45.85
77333;BME280;66408;51.326;12.070;2023-04-03T09:53:43;102278.63;;;6.88;44.61
77333;BME280;66408;51.326;12.070;2023-04-03T09:58:40;102283.66;;;7.38;43.77
77333;BME280;66408;51.326;12.070;2023-04-03T10:06:34;102276.78;;;9.19;41.25
77333;BME280;66408;51.326;12.070;2023-04-03T10:09:16;102263.53;;;8.32;41.29
77333;BME280;66408;51.326;12.070;2023-04-03T10:12:04;102271.75;;;8.77;41.04
77333;BME280;66408;51.326;12.070;2023-04-03T10:14:34;102275.41;;;8.43;40.37
77333;BME280;66408;51.326;12.070;2023-04-03T10:17:46;102267.56;;;9.03;40.27
77333;BME280;66408;51.326;12.070;2023-04-03T10:25:35;102253.81;;;9.43;40.26
77333;BME280;66408;51.326;12.070;2023-04-03T10:28:12;102251.19;;;10.25;37.87
77333;BME280;66408;51.326;12.070;2023-04-03T10:33:46;102250.75;;;9.73;37.59
77333;BME280;66408;51.326;12.070;2023-04-03T10:36:38;102255.00;;;10.07;36.99
77333;BME280;66408;51.326;12.070;2023-04-03T10:39:23;102244.63;;;11.07;36.91
77333;BME280;66408;51.326;12.070;2023-04-03T10:44:56;102241.13;;;10.79;38.08
77333;BME280;66408;51.326;12.070;2023-04-03T10:53:10;102240.25;;;9.82;36.83
77333;BME280;66408;51.326;12.070;2023-04-03T10:55:43;102237.19;;;10.38;37.07
77333;BME280;66408;51.326;12.070;2023-04-03T10:58:26;102235.00;;;9.75;36.63
77333;BME280;66408;51.326;12.070;2023-04-03T11:01:01;102224.88;;;9.49;37.20
77333;BME280;66408;51.326;12.070;2023-04-03T11:03:32;102236.66;;;9.98;36.52
77333;BME280;66408;51.326;12.070;2023-04-03T11:06:05;102235.00;;;9.75;37.78
77333;BME280;66408;51.326;12.070;2023-04-03T11:11:37;102241.19;;;8.98;38.41
77333;BME280;66408;51.326;12.070;2023-04-03T11:14:35;102231.59;;;9.85;38.07
77333;BME280;66408;51.326;12.070;2023-04-03T11:20:22;102231.06;;;9.66;37.64
77333;BME280;66408;51.326;12.070;2023-04-03T11:25:26;102224.53;;;10.05;36.83
77333;BME280;66408;51.326;12.070;2023-04-03T11:35:57;102216.94;;;10.07;38.24
77333;BME280;66408;51.326;12.070;2023-04-03T11:38:27;102221.59;;;8.96;38.59
77333;BME280;66408;51.326;12.070;2023-04-03T11:40:56;102219.88;;;8.45;39.95
77333;BME280;66408;51.326;12.070;2023-04-03T11:43:29;102219.69;;;7.95;39.90
77333;BME280;66408;51.326;12.070;2023-04-03T11:46:05;102209.31;;;7.29;40.75
77333;BME280;66408;51.326;12.070;2023-04-03T11:51:02;102208.69;;;8.70;38.19
77333;BME280;66408;51.326;12.070;2023-04-03T11:54:34;102209.59;;;9.09;37.43
77333;BME280;66408;51.326;12.070;2023-04-03T11:57:43;102203.22;;;7.85;39.46
77333;BME280;66408;51.326;12.070;2023-04-03T12:05:51;102195.50;;;9.46;38.59
77333;BME280;66408;51.326;12.070;2023-04-03T12:08:34;102191.44;;;8.93;39.03
77333;BME280;66408;51.326;12.070;2023-04-03T12:19:02;102200.06;;;8.16;40.49
77333;BME280;66408;51.326;12.070;2023-04-03T12:26:51;102175.88;;;9.22;39.09
77333;BME280;66408;51.326;12.070;2023-04-03T12:29:43;102176.06;;;8.82;39.95
77333;BME280;66408;51.326;12.070;2023-04-03T12:35:29;102173.97;;;9.22;38.42
77333;BME280;66408;51.326;12.070;2023-04-03T12:41:28;102172.19;;;9.11;38.34
77333;BME280;66408;51.326;12.070;2023-04-03T12:44:19;102170.06;;;9.13;38.95
77333;BME280;66408;51.326;12.070;2023-04-03T12:46:51;102179.22;;;8.45;39.01
77333;BME280;66408;51.326;12.070;2023-04-03T12:51:51;102167.97;;;8.53;39.57
77333;BME280;66408;51.326;12.070;2023-04-03T12:54:36;102175.25;;;9.15;37.28
77333;BME280;66408;51.326;12.070;2023-04-03T12:57:28;102161.25;;;10.10;37.35
77333;BME280;66408;51.326;12.070;2023-04-03T12:59:56;102162.81;;;10.28;35.74
77333;BME280;66408;51.326;12.070;2023-04-03T13:02:26;102166.31;;;9.58;36.49
77333;BME280;66408;51.326;12.070;2023-04-03T13:04:57;102160.66;;;9.04;37.94
77333;BME280;66408;51.326;12.070;2023-04-03T13:07:33;102162.81;;;9.41;39.04
77333;BME280;66408;51.326;12.070;2023-04-03T13:12:50;102169.06;;;8.69;37.25
77333;BME280;66408;51.326;12.070;2023-04-03T13:15:29;102163.22;;;8.15;38.11
77333;BME280;66408;51.326;12.070;2023-04-03T13:17:57;102161.34;;;8.16;39.36
77333;BME280;66408;51.326;12.070;2023-04-03T13:25:27;102160.72;;;7.85;39.82
77333;BME280;66408;51.326;12.070;2023-04-03T13:27:55;102163.41;;;7.34;40.98
77333;BME280;66408;51.326;12.070;2023-04-03T13:30:39;102163.88;;;7.31;41.38
77333;BME280;66408;51.326;12.070;2023-04-03T13:33:26;102163.66;;;7.32;40.81
77333;BME280;66408;51.326;12.070;2023-04-03T13:36:04;102157.19;;;7.33;42.01
77333;BME280;66408;51.326;12.070;2023-04-03T13:38:32;102156.50;;;7.14;40.07
77333;BME280;66408;51.326;12.070;2023-04-03T13:41:05;102160.84;;;7.27;41.60
77333;BME280;66408;51.326;12.070;2023-04-03T13:43:47;102151.31;;;7.25;42.14
77333;BME280;66408;51.326;12.070;2023-04-03T13:48:47;102146.13;;;7.86;39.73
77333;BME280;66408;51.326;12.070;2023-04-03T13:53:57;102151.31;;;7.88;39.51
77333;BME280;66408;51.326;12.070;2023-04-03T13:56:29;102145.63;;;7.49;39.45
77333;BME280;66408;51.326;12.070;2023-04-03T13:59:22;102144.47;;;7.34;41.31
77333;BME280;66408;51.326;12.070;2023-04-03T14:02:05;102150.72;;;7.22;41.54
77333;BME280;66408;51.326;12.070;2023-04-03T14:07:03;102154.34;;;6.70;43.06
77333;BME280;66408;51.326;12.070;2023-04-03T14:09:29;102148.47;;;6.61;42.33
77333;BME280;66408;51.326;12.070;2023-04-03T14:12:15;102144.69;;;6.62;42.57
77333;BME280;66408;51.326;12.070;2023-04-03T14:14:56;102153.03;;;6.61;40.54
77333;BME280;66408;51.326;12.070;2023-04-03T14:17:25;102148.94;;;6.81;40.57
77333;BME280;66408;51.326;12.070;2023-04-03T14:19:53;102151.78;;;6.75;40.21
77333;BME280;66408;51.326;12.070;2023-04-03T14:22:24;102148.13;;;6.93;40.55
77333;BME280;66408;51.326;12.070;2023-04-03T14:24:52;102142.38;;;6.89;40.52
77333;BME280;66408;51.326;12.070;2023-04-03T14:29:52;102147.41;;;6.74;43.35
77333;BME280;66408;51.326;12.070;2023-04-03T14:32:20;102142.69;;;6.58;43.58
77333;BME280;66408;51.326;12.070;2023-04-03T14:34:48;102147.72;;;6.42;44.03
77333;BME280;66408;51.326;12.070;2023-04-03T14:37:21;102142.22;;;6.19;45.02
77333;BME280;66408;51.326;12.070;2023-04-03T14:39:49;102144.88;;;6.07;43.91
77333;BME280;66408;51.326;12.070;2023-04-03T14:42:20;102146.94;;;5.94;44.11
77333;BME280;66408;51.326;12.070;2023-04-03T14:44:47;102146.88;;;6.00;44.97
77333;BME280;66408;51.326;12.070;2023-04-03T14:47:17;102137.94;;;6.00;44.13
77333;BME280;66408;51.326;12.070;2023-04-03T14:49:56;102138.44;;;6.08;45.02
77333;BME280;66408;51.326;12.070;2023-04-03T14:52:28;102141.19;;;5.90;43.69
77333;BME280;66408;51.326;12.070;2023-04-03T14:54:56;102138.91;;;5.87;43.41
77333;BME280;66408;51.326;12.070;2023-04-03T14:57:25;102137.56;;;5.96;44.10
77333;BME280;66408;51.326;12.070;2023-04-03T14:59:52;102142.41;;;6.06;45.21
77333;BME280;66408;51.326;12.070;2023-04-03T15:02:31;102140.47;;;6.13;46.17
77333;BME280;66408;51.326;12.070;2023-04-03T15:05:00;102128.91;;;6.06;45.48